x

Aberporth (03502) Weather Station

4:00am - Wed 10th Feb 2016 All times are GMT.

  • Wind
    23mph, 32mph gusts
  • Air Temp 42°f
  • Sea Pressure 994mb
  • Aberporth
  • Aberporth

More Historic Weather Station data

Upgrade to MSW Pro to gain access to the past 30 days of data for over 8000 Wavebouys and Weather Stations around the globe.

Join Pro

Comparision Forecast

View Surf forecast
   
Wed 02/10 4:00am 23 32 mph 994mb 42f
3:00am 24 34 mph 994mb 42f
2:00am 24 36 mph 993mb 42f
1:00am 29 43 mph 993mb 42f
12:00am 32 45 mph 992mb 42f
Tue 02/09 10:00pm 37 56 mph 990mb 40f
9:00pm 40 55 mph 989mb 41f
8:00pm 36 49 mph 988mb 42f
6:00pm 39 53 mph 987mb 40f
5:00pm 36 47 mph 986mb 40f
4:00pm 31 47 mph 986mb 38f
2:00pm 28 46 mph 985mb 38f
1:00pm 33 47 mph 985mb 38f
12:00pm 30 40 mph 986mb 42f
10:00am 25 33 mph 985mb 41f
9:00am 24 33 mph 986mb 41f
8:00am 22 32 mph 986mb 40f
7:00am 25 32 mph 986mb 41f
6:00am 24 33 mph 987mb 41f
5:00am 17 29 mph 987mb 39f
4:00am 19 36 mph 988mb 40f
2:00am 25 36 mph 990mb 42f
1:00am 26 43 mph 991mb 42f
Mon 02/08 11:00pm 30 43 mph 992mb 43f
10:00pm 31 46 mph 992mb 43f
8:00pm 41 52 mph 992mb 43f
7:00pm 38 54 mph 991mb 44f
6:00pm 38 59 mph 990mb 45f
4:00pm 47 64 mph 987mb 46f
3:00pm 48 66 mph 986mb 46f
2:00pm 44 64 mph 984mb 46f
1:00pm 51 67 mph 982mb 46f
12:00pm 46 68 mph 980mb 46f
11:00am 45 70 mph 979mb 46f
10:00am 51 68 mph 978mb 46f
9:00am 49 71 mph 977mb 46f
8:00am 46 64 mph 976mb 45f
7:00am 44 69 mph 976mb 44f
6:00am 41 61 mph 977mb 45f
4:00am 39 61 mph 977mb 45f
3:00am 37 54 mph 978mb 43f
2:00am 44 64 mph 979mb 41f
1:00am 31 63 mph 979mb 42f
Sun 02/07 11:00pm 36 60 mph 980mb 45f
10:00pm 38 61 mph 980mb 44f
9:00pm 34 61 mph 979mb 48f
8:00pm 33 48 mph 979mb 49f
7:00pm 33 48 mph 980mb 49f
6:00pm 25 45 mph 982mb 46f
4:00pm 25 36 mph 986mb 42f
3:00pm 19 40 mph 988mb 41f
2:00pm 29 43 mph 990mb 41f
1:00pm 28 37 mph 991mb 45f
12:00pm 25 34 mph 990mb 45f
11:00am 23 37 mph 991mb 46f
10:00am 24 43 mph 990mb 44f
9:00am 30 43 mph 990mb 43f
7:00am 36 47 mph 987mb 42f
6:00am 26 39 mph 986mb 42f
5:00am 16 31 mph 985mb 39f
4:00am 16
mph
985mb 39f
3:00am 19 31 mph 985mb 40f
2:00am 19 29 mph 985mb 40f
1:00am 14
mph
985mb 39f
Sat 02/06 11:00pm 16 30 mph 984mb 42f
9:00pm 17 30 mph 983mb 43f
8:00pm 19
mph
982mb 44f
6:00pm 17 32 mph 982mb 45f
5:00pm 22 40 mph 981mb 45f
4:00pm 30 46 mph 980mb 48f
2:00pm 28 41 mph 982mb 48f
1:00pm 24 37 mph 984mb 47f
11:00am 16 30 mph 988mb 45f
10:00am 21 37 mph 989mb 45f
9:00am 22 32 mph 990mb 45f
7:00am 13
mph
995mb 44f
6:00am 8
mph
997mb 43f